Wild Boar Gully, Santa Catalina Island Weather observations

Data are for 10 minute period ending at time listed.
 Day   Time   Solar   Ave.   Ave.  Ave.  Vector    Max.   Stn.    Total
  of    of     Rad.   Air    Rel.  Wind   Wind     Wind   Baro.  Precip.
Year   Day            Temp.  Hum.  Speed  Dir.     Gust   Pres.         
2016   (PST)   W/m2    F      %     mph   deg.      mph    mb.     in.  
------------------------------------------------------------------------
 148    6:50   49.0    57   90.2     2    255.0     5.4    999.0   0.00  
 148    7:00   57.0    57   89.9     5    181.9     8.4    999.0   0.00  
 148    7:10   70.0    57   89.8     4    150.7     7.2    999.0   0.00  
 148    7:20  999.0   999  999.0   999    999.0   999.0    999.0 999.00  
 148    7:30  999.0   999  999.0   999    999.0   999.0    999.0 999.00  
 148    7:40  999.0   999  999.0   999    999.0   999.0    999.0 999.00  
 148    7:50  999.0   999  999.0   999    999.0   999.0    999.0 999.00  
 148    8:00  999.0   999  999.0   999    999.0   999.0    999.0 999.00  
 148    8:10  999.0   999  999.0   999    999.0   999.0    999.0 999.00  
 148    8:20  999.0   999  999.0   999    999.0   999.0    999.0 999.00  
 148    8:30  999.0   999  999.0   999    999.0   999.0    999.0 999.00  
 148    8:40  999.0   999  999.0   999    999.0   999.0    999.0 999.00  
 148    8:50  999.0   999  999.0   999    999.0   999.0    999.0 999.00  
 148    9:00  591.0    59   84.1     6    239.1     8.4    999.0   0.00  
 148    9:10  612.0    60   83.0     5    234.5     8.4    999.0   0.00  
 148    9:20  633.0    60   82.2     5    220.2     8.4    999.0   0.00  
 148    9:30  654.0    63   77.1     4    181.5     7.2    999.0   0.00  
 148    9:40  578.0    62   77.4     4    205.1     7.2    999.0   0.00  
 148    9:50  692.0    62   78.0     4    212.2     7.2    999.0   0.00  
 148   10:00  673.0    61   79.6     6    231.7     9.6    999.0   0.00  
 148   10:10  697.0    61   80.6     6    234.1     9.0    999.0   0.00  
 148   10:20  785.0    60   82.4     7    239.3    10.8    999.0   0.00  
 148   10:30  833.0    60   82.8     7    238.9    10.2    999.0   0.00  
 148   10:40  568.0    60   81.6     6    237.7    10.2    999.0   0.00  
 148   10:50  661.0    61   80.7     7    241.4    10.2    999.0   0.00  
 148   11:00  498.0    60   82.4     7    234.7    10.8    999.0   0.00  
 148   11:10  542.0    60   82.4     7    238.3    10.2    999.0   0.00  
 148   11:20  695.0    61   80.8     7    240.7    10.8    999.0   0.00  
 148   11:30  626.0    61   80.5     7    241.5    10.8    999.0   0.00  
 148   11:40  522.0    60   81.6     6    242.8     9.0    999.0   0.00  
 148   11:50  375.0    59   83.2     6    240.7     9.6    999.0   0.00  
 148   12:00  591.0    60   82.6     6    242.3     9.0    999.0   0.00  
 148   12:10  722.0    61   81.7     7    243.9     9.6    999.0   0.00  
 148   12:20  825.0    62   79.7     6    235.6    10.2    999.0   0.00  
 148   12:30  620.0    61   80.5     7    234.8    10.8    999.0   0.00  
 148   12:40  813.0    61   80.9     6    242.6     9.6    999.0   0.00  
 148   12:50  797.0    61   80.5     6    239.7     9.6    999.0   0.00  
 148   13:00  779.0    61   81.0     7    236.7    10.8    999.0   0.00  
 148   13:10  772.0    62   79.8     8    235.9    11.3    999.0   0.00  
 148   13:20  763.0    62   79.7     8    232.7    11.3    999.0   0.00  
 148   13:30  751.0    62   78.9     8    232.8    10.8    999.0   0.00  
 148   13:40  737.0    62   79.4     8    231.5    12.5    999.0   0.00  
 148   13:50  724.0    62   79.8     9    235.8    12.5    999.0   0.00  
 148   14:00  707.0    62   80.8    10    234.8    13.7    999.0   0.00  
 148   14:10  691.0    62   81.0    10    230.8    16.1    999.0   0.00  
 148   14:20  672.0    61   81.9    11    230.9    17.3    999.0   0.00  
 148   14:30  649.0    62   80.7    11    232.8    16.1    999.0   0.00  
 148   14:40  630.0    62   80.9    12    233.0    19.1    999.0   0.00  
 148   14:50  608.0    62   79.8    11    243.8    20.3    999.0   0.00  
 148   15:00  587.0    63   78.3    12    252.1    20.3    999.0   0.00  
 148   15:10  565.0    63   78.4    12    246.1    19.1    999.0   0.00  
 148   15:20  542.0    63   79.6    12    253.1    19.1    999.0   0.00  
 148   15:30  519.0    63   79.1    14    266.6    19.1    999.0   0.00  
 148   15:40  496.0    63   79.3    12    267.6    19.1    999.0   0.00  
 148   15:50  472.0    64   79.0    12    269.4    19.1    999.0   0.00  
 148   16:00  449.0    62   81.8    15    272.4    20.3    999.0   0.00  
 148   16:10  413.0    62   81.8    14    266.6    19.1    999.0   0.00  
 148   16:20  364.0    62   82.0    13    270.5    19.1    999.0   0.00  
 148   16:30  208.0    61   84.0    12    261.2    17.3    999.0   0.00  
 148   16:40  106.0    60   87.1     9    276.6    14.3    999.0   0.00  
 148   16:50  112.0    60   87.1     9    254.2    13.7    999.0   0.00  
 148   17:00   91.0    60   87.9    10    258.2    15.5    999.0   0.00  
 148   17:10   99.0    60   87.9     9    276.2    16.1    999.0   0.00  
 148   17:20   89.0    59   88.3    11    273.0    16.1    999.0   0.00  
 148   17:30   79.0    59   88.8    11    257.1    17.9    999.0   0.00  
 148   17:40   56.0    58   89.2    10    256.0    14.3    999.0   0.00  
 148   17:50   40.0    58   89.8    10    274.0    14.9    999.0   0.00  
 148   18:00   30.0    58   90.8    10    276.7    14.9    999.0   0.00  
 148   18:10   28.0    58   91.2    10    271.7    16.7    999.0   0.00  
 148   18:20   24.0    58   91.3     9    262.0    13.7    999.0   0.00  
 148   18:30   14.0    57   91.2     9    266.2    12.5    999.0   0.00  
 148   18:40    9.0    57   91.6    10    271.2    14.3    999.0   0.00  
 148   18:50    6.0    57   92.2    10    272.7    14.9    999.0   0.00  
 148   19:00    1.0    56   92.2    10    270.0    12.5    999.0   0.00  
 148   19:10    0.0    56   92.6     9    276.3    13.1    999.0   0.00  
 148   19:20    0.0    56   92.8     7    295.5    10.2    999.0   0.00  
 148   19:30    0.0    56   92.8     7    265.6    11.3    999.0   0.00  
 148   19:40    0.0    56   93.1     8    276.0    10.8    999.0   0.00  
 148   19:50    0.0    56   93.2     6    287.3     8.4    999.0   0.00  
 148   20:00    0.0    56   93.3     5    277.9     7.2    999.0   0.00  
 148   20:10    0.0    56   93.4     6    248.2     9.0    999.0   0.00  
 148   20:20    0.0    56   93.6     5    275.4     6.6    999.0   0.00  
 148   20:30    0.0    56   93.6     6    275.7     7.8    999.0   0.00  
 148   20:40    0.0    56   93.6     4    261.1     6.0    999.0   0.00  
 148   20:50    0.0    56   93.8     4    280.6     7.2    999.0   0.00  
 148   21:00    0.0    55   94.0     4    245.2     4.8    999.0   0.00  
 148   21:10    0.0    55   94.4     3    254.0     6.0    999.0   0.00  
 148   21:20    0.0    55   94.7     5    279.9     8.4    999.0   0.00  
 148   21:30    0.0    55   95.0     4    268.1     7.2    999.0   0.00  
 148   21:40    0.0    55   95.2     4    270.5     6.6    999.0   0.00  
 148   21:50    0.0    55   95.2     4    244.5     6.6    999.0   0.00  
 148   22:00    0.0    55   95.3     4    238.8     6.0    999.0   0.00  
 148   22:10    0.0    55   95.3     4    244.2     6.0    999.0   0.00  
 148   22:20  999.0   999  999.0   999    999.0   999.0    999.0 999.00  
 148   22:30  999.0   999  999.0   999    999.0   999.0    999.0 999.00  
 148   22:40    0.0    56   95.1     3    253.5     4.8    999.0   0.00  
 148   22:50    0.0    56   95.0     3    247.5     4.2    999.0   0.00  
 148   23:00    0.0    56   94.9     3    246.9     4.8    999.0   0.00  
 148   23:10    0.0    56   94.9     2    267.3     3.6    999.0   0.00  
 148   23:20    0.0    56   94.8     3    256.2     3.6    999.0   0.00  
 148   23:30    0.0    56   94.7     2    256.3     3.6    999.0   0.00  
 148   23:40    0.0    56   94.6     2    255.8     2.4    999.0   0.00  
 148   23:50    0.0    56   94.5     1    235.3     3.0    999.0   0.00  
 149    0:00    0.0    56   94.4     1    242.9     3.0    999.0   0.00  
 149    0:10    0.0    56   94.4     2    231.1     3.0    999.0   0.00  
 149    0:20    0.0    56   94.4     2    132.8     3.6    999.0   0.00  
 149    0:30    0.0    56   94.3     2    135.8     3.6    999.0   0.00  
 149    0:40    0.0    56   94.2     2    196.1     3.6    999.0   0.00  
 149    0:50    0.0    56   94.0     2    220.0     4.2    999.0   0.00  
 149    1:00    0.0    56   93.8     4    240.6     5.4    999.0   0.00  
 149    1:10    0.0    56   93.8     2    238.1     4.8    999.0   0.00  
 149    1:20    0.0    56   93.8     1     43.6     3.0    999.0   0.00  
 149    1:30    0.0    56   93.7     2     67.2     3.0    999.0   0.00  
 149    1:40    0.0    56   93.7     2    113.5     4.2    999.0   0.00  
 149    1:50    0.0    56   93.8     2    191.0     4.8    999.0   0.00  
 149    2:00    0.0    56   94.0     2    199.8     5.4    999.0   0.00  
 149    2:10    0.0    56   94.1     4    205.9     5.4    999.0   0.00  
 149    2:20    0.0    56   94.2     3    191.7     5.4    999.0   0.00  
 149    2:30    0.0    56   94.3     2     85.5     4.8    999.0   0.00  
 149    2:40    0.0    56   94.4     3    301.7     4.2    999.0   0.00  
 149    2:50    0.0    56   94.5     3    270.1     4.2    999.0   0.00  
 149    3:00    0.0    56   94.5     4    236.4     7.8    999.0   0.00  
 149    3:10    0.0    56   94.6     4    252.2     6.6    999.0   0.00  
 149    3:20    0.0    56   94.7     5    228.2     7.2    999.0   0.00  
 149    3:30    0.0    56   94.9     3    230.5     5.4    999.0   0.00  
 149    3:40    0.0    56   94.9     4    219.9     6.6    999.0   0.00  
 149    3:50    0.0    55   95.0     3    234.3     6.0    999.0   0.00  
 149    4:00    0.0    55   95.0     4    267.6     6.6    999.0   0.00  
 149    4:10    0.0    55   94.9     4    279.8     7.8    999.0   0.00  
 149    4:20    0.0    55   95.0     4    281.8     7.2    999.0   0.00  
 149    4:30    0.0    55   95.0     5    245.6     7.2    999.0   0.00  
 149    4:40    0.0    55   95.0     5    240.2     7.2    999.0   0.00  
 149    4:50    0.0    55   95.1     4    257.7     7.8    999.0   0.00  
 149    5:00    0.0    55   95.0     4    249.1     7.2    999.0   0.00  
 149    5:10    0.0    55   95.0     5    239.0     7.8    999.0   0.00  
 149    5:20    5.0    55   95.0     4    240.6     6.0    999.0   0.00  
 149    5:30    6.0    55   95.0     4    293.1     7.2    999.0   0.00  
 149    5:40    6.0    55   95.0     3    296.5     5.4    999.0   0.00  
 149    5:50    9.0    55   95.0     2    312.0     4.2    999.0   0.00  
 149    6:00   12.0    55   95.0     2    275.0     3.6    999.0   0.00  
 149    6:10   14.0    55   95.0     3    247.9     4.8    999.0   0.00  
 149    6:20   21.0    55   95.0     4    236.8     5.4    999.0   0.00  
 149    6:30   20.0    55   95.1     3    243.4     4.8    999.0   0.00  
 149    6:40   23.0    55   95.1     2    246.2     5.4    999.0   0.00  

Return to Wild Boar Gully graphs page.


Western Regional Climate Center,wrcc@dri.edu